Lake Sherwood, Missouri
Current Conditions -  °F | °C
As of 6:35 PM on Friday 24 Oct 2014 (Local Time) from KFYG Reporting Station
Overcast Overcast  
Wind Chill: 68°   Ceiling: 4600
Heat Index: 68°   Visibility: 10mi
Dew Point: 54°   Wind: 0mph
Humidity: 60%   Direction: NA
Pressure: 30"   Gusts: NA
Location:  38.6485°N, 91.0773°W
Report Text: KFYG 242335Z AUTO 00000KT 10SM OVC046 20/12 A3000 RMK AO2
Loading
Personal Weather Stations






























Interactive Weather Map New forecast layout! Learn more

10-Day Weather Forecast

Advertisements
Track Severe Weather on mobile